메인 페이지
METAR-TAF:

METAR-TAF

공항 :

다치카와, 일본

위도: 35-42N, 경도: 139-24E, 고도: 95m

현재 날씨관측

예보는 1 시간 9분 전, 23:15시(UTC)에 발표되었습니다.
여러 방향의 바람 1kt
온도 20°C
습도 88%
기압 1008 hPa
시정 10km 이상
고도 800ft 상공 구름 조금
고도 1000ft 상공 구름 많음
고도 1500ft 상공 구름 많음
약한비

METAR: RJTC 212315Z VRB01KT 9999 -RA FEW008 BKN010 BKN015 20/18 Q1008 RMK 1ST008 5SC010 6SC015 A2979

시각: 09:24 (00:24 UTC)


TAF: 누락

4,000개 이상의 공항 관측 자료 및 예보 (METAR 및 TAF 보고).

지도상에서 검색 가능한 기상관측소가 노란 점과 빨간 점으로 표시되어 있습니다.

기상관측소 명을 보려면 표시 위로 마우스를 이동하세요.

날씨 관측과 예보를 보려면 클릭하세요.

지도 변경 : 확대하려면 엑스 표시가 있는 녹색 버튼, 축소하려면 빼기 표시가 있는 녹색 버튼, 다음 페이지의 지도를 보려면 녹색 화살표를 클릭하세요.


METAR-TAF: